sensor_id;sensor_type;location;lat;lon;timestamp;P1;durP1;ratioP1;P2;durP2;ratioP2
11052;SDS011;55230;42.602;23.470;2023-02-03T00:01:44;3.10;;;2.37;;
11052;SDS011;55230;42.602;23.470;2023-02-03T00:04:13;3.63;;;3.13;;
11052;SDS011;55230;42.602;23.470;2023-02-03T00:06:40;3.23;;;2.80;;
11052;SDS011;55230;42.602;23.470;2023-02-03T00:09:07;2.90;;;2.70;;
11052;SDS011;55230;42.602;23.470;2023-02-03T00:11:34;5.07;;;2.67;;
11052;SDS011;55230;42.602;23.470;2023-02-03T00:14:02;3.03;;;2.67;;
11052;SDS011;55230;42.602;23.470;2023-02-03T00:16:32;3.70;;;2.40;;
11052;SDS011;55230;42.602;23.470;2023-02-03T00:18:58;3.20;;;2.53;;
11052;SDS011;55230;42.602;23.470;2023-02-03T00:21:27;3.37;;;2.67;;
11052;SDS011;55230;42.602;23.470;2023-02-03T00:23:53;3.63;;;3.03;;
11052;SDS011;55230;42.602;23.470;2023-02-03T00:26:20;3.87;;;2.80;;
11052;SDS011;55230;42.602;23.470;2023-02-03T00:28:48;5.43;;;3.60;;
11052;SDS011;55230;42.602;23.470;2023-02-03T00:31:15;3.93;;;2.50;;
11052;SDS011;55230;42.602;23.470;2023-02-03T00:33:42;3.00;;;2.47;;
11052;SDS011;55230;42.602;23.470;2023-02-03T00:36:10;3.53;;;2.97;;
11052;SDS011;55230;42.602;23.470;2023-02-03T00:38:38;3.93;;;3.20;;
11052;SDS011;55230;42.602;23.470;2023-02-03T00:41:05;4.67;;;3.20;;
11052;SDS011;55230;42.602;23.470;2023-02-03T00:43:32;3.27;;;2.93;;
11052;SDS011;55230;42.602;23.470;2023-02-03T00:45:59;4.07;;;3.50;;
11052;SDS011;55230;42.602;23.470;2023-02-03T00:48:26;4.27;;;3.67;;
11052;SDS011;55230;42.602;23.470;2023-02-03T00:50:53;5.17;;;3.43;;
11052;SDS011;55230;42.602;23.470;2023-02-03T00:53:19;4.57;;;3.63;;
11052;SDS011;55230;42.602;23.470;2023-02-03T00:55:48;5.27;;;4.10;;
11052;SDS011;55230;42.602;23.470;2023-02-03T00:58:14;5.00;;;4.17;;
11052;SDS011;55230;42.602;23.470;2023-02-03T01:00:41;6.33;;;4.47;;
11052;SDS011;55230;42.602;23.470;2023-02-03T01:03:08;6.83;;;5.20;;
11052;SDS011;55230;42.602;23.470;2023-02-03T01:05:35;5.83;;;5.13;;
11052;SDS011;55230;42.602;23.470;2023-02-03T01:08:02;6.87;;;5.00;;
11052;SDS011;55230;42.602;23.470;2023-02-03T01:10:29;7.33;;;5.40;;
11052;SDS011;55230;42.602;23.470;2023-02-03T01:12:57;7.40;;;5.23;;
11052;SDS011;55230;42.602;23.470;2023-02-03T01:15:23;5.33;;;4.57;;
11052;SDS011;55230;42.602;23.470;2023-02-03T01:17:50;6.70;;;5.60;;
11052;SDS011;55230;42.602;23.470;2023-02-03T01:20:17;5.80;;;4.77;;
11052;SDS011;55230;42.602;23.470;2023-02-03T01:22:45;7.47;;;4.93;;
11052;SDS011;55230;42.602;23.470;2023-02-03T01:25:12;6.73;;;4.70;;
11052;SDS011;55230;42.602;23.470;2023-02-03T01:27:39;7.13;;;5.20;;
11052;SDS011;55230;42.602;23.470;2023-02-03T01:30:07;6.43;;;4.90;;
11052;SDS011;55230;42.602;23.470;2023-02-03T01:32:35;7.33;;;4.73;;
11052;SDS011;55230;42.602;23.470;2023-02-03T01:35:02;5.83;;;4.67;;
11052;SDS011;55230;42.602;23.470;2023-02-03T01:37:28;4.90;;;4.40;;
11052;SDS011;55230;42.602;23.470;2023-02-03T01:39:55;4.13;;;3.73;;
11052;SDS011;55230;42.602;23.470;2023-02-03T01:42:22;4.63;;;4.00;;
11052;SDS011;55230;42.602;23.470;2023-02-03T01:44:49;4.40;;;3.97;;
11052;SDS011;55230;42.602;23.470;2023-02-03T01:47:20;4.23;;;3.37;;
11052;SDS011;55230;42.602;23.470;2023-02-03T01:49:52;3.70;;;3.30;;
11052;SDS011;55230;42.602;23.470;2023-02-03T01:52:26;4.13;;;3.10;;
11052;SDS011;55230;42.602;23.470;2023-02-03T01:54:54;3.20;;;2.90;;
11052;SDS011;55230;42.602;23.470;2023-02-03T01:57:25;3.63;;;2.77;;
11052;SDS011;55230;42.602;23.470;2023-02-03T01:59:57;3.10;;;2.27;;
11052;SDS011;55230;42.602;23.470;2023-02-03T02:02:26;2.97;;;2.67;;
11052;SDS011;55230;42.602;23.470;2023-02-03T02:04:56;3.43;;;2.30;;
11052;SDS011;55230;42.602;23.470;2023-02-03T02:07:28;2.67;;;2.47;;
11052;SDS011;55230;42.602;23.470;2023-02-03T02:09:55;2.20;;;2.00;;
11052;SDS011;55230;42.602;23.470;2023-02-03T02:12:22;2.63;;;2.20;;
11052;SDS011;55230;42.602;23.470;2023-02-03T02:14:49;2.47;;;2.13;;
11052;SDS011;55230;42.602;23.470;2023-02-03T02:17:22;2.27;;;2.07;;
11052;SDS011;55230;42.602;23.470;2023-02-03T02:20:11;2.17;;;1.97;;
11052;SDS011;55230;42.602;23.470;2023-02-03T02:23:02;2.57;;;2.37;;
11052;SDS011;55230;42.602;23.470;2023-02-03T02:28:53;2.17;;;2.07;;
11052;SDS011;55230;42.602;23.470;2023-02-03T02:31:52;3.37;;;2.40;;
11052;SDS011;55230;42.602;23.470;2023-02-03T02:34:27;3.47;;;2.97;;
11052;SDS011;55230;42.602;23.470;2023-02-03T02:37:06;3.10;;;2.80;;
11052;SDS011;55230;42.602;23.470;2023-02-03T02:39:47;2.67;;;2.47;;
11052;SDS011;55230;42.602;23.470;2023-02-03T02:42:23;4.80;;;2.50;;
11052;SDS011;55230;42.602;23.470;2023-02-03T02:44:58;3.47;;;2.80;;
11052;SDS011;55230;42.602;23.470;2023-02-03T02:47:34;2.90;;;2.70;;
11052;SDS011;55230;42.602;23.470;2023-02-03T02:50:02;5.77;;;2.70;;
11052;SDS011;55230;42.602;23.470;2023-02-03T02:52:33;2.80;;;2.60;;
11052;SDS011;55230;42.602;23.470;2023-02-03T02:55:04;4.83;;;2.97;;
11052;SDS011;55230;42.602;23.470;2023-02-03T02:57:35;3.80;;;2.70;;
11052;SDS011;55230;42.602;23.470;2023-02-03T03:00:05;3.77;;;2.93;;
11052;SDS011;55230;42.602;23.470;2023-02-03T03:02:33;11.07;;;6.63;;
11052;SDS011;55230;42.602;23.470;2023-02-03T03:05:02;18.87;;;10.43;;
11052;SDS011;55230;42.602;23.470;2023-02-03T03:07:31;13.03;;;8.03;;
11052;SDS011;55230;42.602;23.470;2023-02-03T03:10:06;3.30;;;3.00;;
11052;SDS011;55230;42.602;23.470;2023-02-03T03:12:37;2.97;;;2.63;;
11052;SDS011;55230;42.602;23.470;2023-02-03T03:15:10;3.70;;;3.00;;
11052;SDS011;55230;42.602;23.470;2023-02-03T03:17:42;3.63;;;3.10;;
11052;SDS011;55230;42.602;23.470;2023-02-03T03:20:13;3.33;;;3.03;;
11052;SDS011;55230;42.602;23.470;2023-02-03T03:22:46;3.37;;;2.83;;
11052;SDS011;55230;42.602;23.470;2023-02-03T03:25:18;3.67;;;3.00;;
11052;SDS011;55230;42.602;23.470;2023-02-03T03:27:51;3.40;;;3.10;;
11052;SDS011;55230;42.602;23.470;2023-02-03T03:30:22;3.73;;;2.80;;
11052;SDS011;55230;42.602;23.470;2023-02-03T03:32:53;6.03;;;3.10;;
11052;SDS011;55230;42.602;23.470;2023-02-03T03:35:22;3.43;;;2.90;;
11052;SDS011;55230;42.602;23.470;2023-02-03T03:37:55;4.90;;;3.17;;
11052;SDS011;55230;42.602;23.470;2023-02-03T03:40:25;4.33;;;3.57;;
11052;SDS011;55230;42.602;23.470;2023-02-03T03:42:57;3.47;;;3.17;;
11052;SDS011;55230;42.602;23.470;2023-02-03T03:45:30;3.77;;;2.77;;
11052;SDS011;55230;42.602;23.470;2023-02-03T03:48:03;3.40;;;3.10;;
11052;SDS011;55230;42.602;23.470;2023-02-03T03:50:34;3.27;;;2.97;;
11052;SDS011;55230;42.602;23.470;2023-02-03T03:53:06;3.23;;;2.50;;
11052;SDS011;55230;42.602;23.470;2023-02-03T03:55:36;2.70;;;2.50;;
11052;SDS011;55230;42.602;23.470;2023-02-03T03:58:06;2.67;;;2.47;;
11052;SDS011;55230;42.602;23.470;2023-02-03T04:00:36;3.70;;;2.70;;
11052;SDS011;55230;42.602;23.470;2023-02-03T04:03:10;3.27;;;2.90;;
11052;SDS011;55230;42.602;23.470;2023-02-03T04:05:40;3.40;;;2.80;;
11052;SDS011;55230;42.602;23.470;2023-02-03T04:08:07;2.90;;;2.60;;
11052;SDS011;55230;42.602;23.470;2023-02-03T04:10:35;3.23;;;2.90;;
11052;SDS011;55230;42.602;23.470;2023-02-03T04:13:03;2.43;;;2.23;;
11052;SDS011;55230;42.602;23.470;2023-02-03T04:15:31;3.40;;;2.50;;
11052;SDS011;55230;42.602;23.470;2023-02-03T04:17:58;6.10;;;3.10;;
11052;SDS011;55230;42.602;23.470;2023-02-03T04:20:27;2.47;;;2.27;;
11052;SDS011;55230;42.602;23.470;2023-02-03T04:22:55;3.17;;;2.50;;
11052;SDS011;55230;42.602;23.470;2023-02-03T04:25:22;2.50;;;2.30;;
11052;SDS011;55230;42.602;23.470;2023-02-03T04:27:50;2.80;;;2.60;;
11052;SDS011;55230;42.602;23.470;2023-02-03T04:30:16;3.40;;;3.07;;
11052;SDS011;55230;42.602;23.470;2023-02-03T04:32:43;3.60;;;3.10;;
11052;SDS011;55230;42.602;23.470;2023-02-03T04:35:10;3.00;;;2.70;;
11052;SDS011;55230;42.602;23.470;2023-02-03T04:37:39;3.70;;;3.00;;
11052;SDS011;55230;42.602;23.470;2023-02-03T04:40:07;2.77;;;2.57;;
11052;SDS011;55230;42.602;23.470;2023-02-03T04:42:35;3.50;;;3.10;;
11052;SDS011;55230;42.602;23.470;2023-02-03T04:45:03;3.50;;;2.80;;
11052;SDS011;55230;42.602;23.470;2023-02-03T04:47:30;3.33;;;3.03;;
11052;SDS011;55230;42.602;23.470;2023-02-03T04:49:57;4.13;;;3.03;;
11052;SDS011;55230;42.602;23.470;2023-02-03T04:52:24;3.20;;;2.90;;
11052;SDS011;55230;42.602;23.470;2023-02-03T04:54:52;4.03;;;3.23;;
11052;SDS011;55230;42.602;23.470;2023-02-03T04:57:19;3.87;;;3.07;;
11052;SDS011;55230;42.602;23.470;2023-02-03T04:59:46;3.60;;;3.30;;
11052;SDS011;55230;42.602;23.470;2023-02-03T05:02:13;3.70;;;3.40;;
11052;SDS011;55230;42.602;23.470;2023-02-03T05:04:39;3.80;;;3.47;;
11052;SDS011;55230;42.602;23.470;2023-02-03T05:07:06;5.13;;;3.50;;
11052;SDS011;55230;42.602;23.470;2023-02-03T05:09:33;4.13;;;3.50;;
11052;SDS011;55230;42.602;23.470;2023-02-03T05:12:01;3.50;;;3.20;;
11052;SDS011;55230;42.602;23.470;2023-02-03T05:14:28;3.70;;;3.07;;
11052;SDS011;55230;42.602;23.470;2023-02-03T05:16:54;3.50;;;3.20;;
11052;SDS011;55230;42.602;23.470;2023-02-03T05:19:21;3.97;;;3.50;;
11052;SDS011;55230;42.602;23.470;2023-02-03T05:21:48;4.23;;;3.30;;
11052;SDS011;55230;42.602;23.470;2023-02-03T05:24:15;4.73;;;3.33;;
11052;SDS011;55230;42.602;23.470;2023-02-03T05:26:42;3.80;;;3.30;;
11052;SDS011;55230;42.602;23.470;2023-02-03T05:29:10;3.83;;;3.53;;
11052;SDS011;55230;42.602;23.470;2023-02-03T05:31:37;3.70;;;3.40;;
11052;SDS011;55230;42.602;23.470;2023-02-03T05:34:03;3.90;;;3.47;;
11052;SDS011;55230;42.602;23.470;2023-02-03T05:36:30;4.40;;;3.90;;
11052;SDS011;55230;42.602;23.470;2023-02-03T05:38:57;5.83;;;4.20;;
11052;SDS011;55230;42.602;23.470;2023-02-03T05:41:24;4.23;;;3.77;;
11052;SDS011;55230;42.602;23.470;2023-02-03T05:44:09;4.10;;;3.00;;
11052;SDS011;55230;42.602;23.470;2023-02-03T05:46:36;3.93;;;3.50;;
11052;SDS011;55230;42.602;23.470;2023-02-03T05:49:03;4.30;;;3.83;;
11052;SDS011;55230;42.602;23.470;2023-02-03T05:51:30;4.73;;;3.40;;
11052;SDS011;55230;42.602;23.470;2023-02-03T05:53:56;5.13;;;4.63;;
11052;SDS011;55230;42.602;23.470;2023-02-03T05:56:23;4.97;;;4.43;;
11052;SDS011;55230;42.602;23.470;2023-02-03T05:58:50;3.53;;;3.23;;
11052;SDS011;55230;42.602;23.470;2023-02-03T06:01:19;3.80;;;3.47;;
11052;SDS011;55230;42.602;23.470;2023-02-03T06:03:46;4.77;;;4.03;;
11052;SDS011;55230;42.602;23.470;2023-02-03T06:06:13;4.30;;;3.90;;
11052;SDS011;55230;42.602;23.470;2023-02-03T06:08:40;5.13;;;4.20;;
11052;SDS011;55230;42.602;23.470;2023-02-03T06:11:07;5.70;;;4.17;;
11052;SDS011;55230;42.602;23.470;2023-02-03T06:13:34;8.43;;;5.93;;
11052;SDS011;55230;42.602;23.470;2023-02-03T06:16:01;4.53;;;3.80;;
11052;SDS011;55230;42.602;23.470;2023-02-03T06:18:29;4.40;;;4.00;;
11052;SDS011;55230;42.602;23.470;2023-02-03T06:20:56;3.80;;;3.27;;
11052;SDS011;55230;42.602;23.470;2023-02-03T06:23:23;5.50;;;3.83;;
11052;SDS011;55230;42.602;23.470;2023-02-03T06:25:50;5.83;;;4.53;;
11052;SDS011;55230;42.602;23.470;2023-02-03T06:28:17;5.57;;;4.43;;
11052;SDS011;55230;42.602;23.470;2023-02-03T06:30:44;6.37;;;4.27;;
11052;SDS011;55230;42.602;23.470;2023-02-03T06:33:11;5.80;;;4.33;;
11052;SDS011;55230;42.602;23.470;2023-02-03T06:35:39;4.50;;;4.00;;
11052;SDS011;55230;42.602;23.470;2023-02-03T06:38:05;5.67;;;4.50;;
11052;SDS011;55230;42.602;23.470;2023-02-03T06:40:32;4.73;;;3.87;;
11052;SDS011;55230;42.602;23.470;2023-02-03T06:42:59;3.93;;;3.50;;
11052;SDS011;55230;42.602;23.470;2023-02-03T06:45:26;3.40;;;3.10;;
11052;SDS011;55230;42.602;23.470;2023-02-03T06:47:53;3.97;;;3.47;;
11052;SDS011;55230;42.602;23.470;2023-02-03T06:50:19;3.80;;;3.40;;
11052;SDS011;55230;42.602;23.470;2023-02-03T06:52:49;4.13;;;3.73;;
11052;SDS011;55230;42.602;23.470;2023-02-03T06:55:16;3.60;;;3.30;;
11052;SDS011;55230;42.602;23.470;2023-02-03T06:57:43;3.77;;;3.43;;
11052;SDS011;55230;42.602;23.470;2023-02-03T07:00:11;3.93;;;3.27;;
11052;SDS011;55230;42.602;23.470;2023-02-03T07:02:39;4.97;;;3.40;;
11052;SDS011;55230;42.602;23.470;2023-02-03T07:05:06;3.73;;;3.13;;
11052;SDS011;55230;42.602;23.470;2023-02-03T07:07:33;3.30;;;3.00;;
11052;SDS011;55230;42.602;23.470;2023-02-03T07:10:01;4.03;;;3.63;;
11052;SDS011;55230;42.602;23.470;2023-02-03T07:12:28;4.33;;;3.80;;
11052;SDS011;55230;42.602;23.470;2023-02-03T07:14:56;3.87;;;3.57;;
11052;SDS011;55230;42.602;23.470;2023-02-03T07:17:39;3.40;;;3.10;;
11052;SDS011;55230;42.602;23.470;2023-02-03T07:24:47;3.07;;;2.77;;
11052;SDS011;55230;42.602;23.470;2023-02-03T07:30:41;4.67;;;3.60;;
11052;SDS011;55230;42.602;23.470;2023-02-03T07:33:42;3.30;;;3.00;;
11052;SDS011;55230;42.602;23.470;2023-02-03T07:36:40;3.60;;;3.30;;
11052;SDS011;55230;42.602;23.470;2023-02-03T07:42:44;3.30;;;3.00;;
11052;SDS011;55230;42.602;23.470;2023-02-03T07:45:18;3.40;;;3.10;;
11052;SDS011;55230;42.602;23.470;2023-02-03T07:47:46;6.50;;;3.37;;
11052;SDS011;55230;42.602;23.470;2023-02-03T07:50:15;4.20;;;3.87;;
11052;SDS011;55230;42.602;23.470;2023-02-03T07:52:47;5.37;;;4.20;;
11052;SDS011;55230;42.602;23.470;2023-02-03T07:55:36;4.40;;;3.90;;
11052;SDS011;55230;42.602;23.470;2023-02-03T07:58:28;5.07;;;4.57;;
11052;SDS011;55230;42.602;23.470;2023-02-03T08:01:13;2.83;;;2.57;;
11052;SDS011;55230;42.602;23.470;2023-02-03T08:03:48;5.20;;;3.30;;
11052;SDS011;55230;42.602;23.470;2023-02-03T08:06:18;3.60;;;3.30;;
11052;SDS011;55230;42.602;23.470;2023-02-03T08:08:49;4.17;;;3.77;;
11052;SDS011;55230;42.602;23.470;2023-02-03T08:11:18;5.67;;;3.90;;
11052;SDS011;55230;42.602;23.470;2023-02-03T08:13:45;5.70;;;4.33;;
11052;SDS011;55230;42.602;23.470;2023-02-03T08:16:14;3.10;;;2.73;;
11052;SDS011;55230;42.602;23.470;2023-02-03T08:18:41;8.47;;;5.63;;
11052;SDS011;55230;42.602;23.470;2023-02-03T08:21:08;3.90;;;3.57;;
11052;SDS011;55230;42.602;23.470;2023-02-03T08:23:35;3.67;;;3.37;;
11052;SDS011;55230;42.602;23.470;2023-02-03T08:26:02;4.10;;;3.20;;
11052;SDS011;55230;42.602;23.470;2023-02-03T08:28:29;3.87;;;3.37;;
11052;SDS011;55230;42.602;23.470;2023-02-03T08:30:55;2.40;;;2.20;;
11052;SDS011;55230;42.602;23.470;2023-02-03T08:33:24;3.57;;;3.27;;
11052;SDS011;55230;42.602;23.470;2023-02-03T08:35:51;3.90;;;2.80;;
11052;SDS011;55230;42.602;23.470;2023-02-03T08:38:18;3.67;;;2.87;;
11052;SDS011;55230;42.602;23.470;2023-02-03T08:40:46;4.13;;;2.50;;
11052;SDS011;55230;42.602;23.470;2023-02-03T08:43:12;2.73;;;2.43;;
11052;SDS011;55230;42.602;23.470;2023-02-03T08:45:39;4.23;;;3.40;;
11052;SDS011;55230;42.602;23.470;2023-02-03T08:48:06;2.80;;;2.50;;
11052;SDS011;55230;42.602;23.470;2023-02-03T08:50:34;4.20;;;2.60;;
11052;SDS011;55230;42.602;23.470;2023-02-03T08:53:01;6.63;;;4.93;;
11052;SDS011;55230;42.602;23.470;2023-02-03T08:55:28;3.40;;;3.10;;
11052;SDS011;55230;42.602;23.470;2023-02-03T08:57:55;4.10;;;2.93;;
11052;SDS011;55230;42.602;23.470;2023-02-03T09:00:22;3.93;;;3.43;;
11052;SDS011;55230;42.602;23.470;2023-02-03T09:02:49;2.87;;;2.67;;
11052;SDS011;55230;42.602;23.470;2023-02-03T09:05:16;3.17;;;2.47;;
11052;SDS011;55230;42.602;23.470;2023-02-03T09:07:44;4.97;;;3.43;;
11052;SDS011;55230;42.602;23.470;2023-02-03T09:10:11;4.50;;;2.50;;
11052;SDS011;55230;42.602;23.470;2023-02-03T09:12:38;2.50;;;2.30;;
11052;SDS011;55230;42.602;23.470;2023-02-03T09:15:05;2.60;;;2.40;;
11052;SDS011;55230;42.602;23.470;2023-02-03T09:17:32;2.40;;;2.20;;
11052;SDS011;55230;42.602;23.470;2023-02-03T09:19:59;2.57;;;2.37;;
11052;SDS011;55230;42.602;23.470;2023-02-03T09:22:25;2.93;;;2.63;;
11052;SDS011;55230;42.602;23.470;2023-02-03T09:24:54;2.43;;;2.23;;
11052;SDS011;55230;42.602;23.470;2023-02-03T09:27:20;2.77;;;2.57;;
11052;SDS011;55230;42.602;23.470;2023-02-03T09:29:47;3.00;;;2.70;;
11052;SDS011;55230;42.602;23.470;2023-02-03T09:32:14;4.57;;;2.90;;
11052;SDS011;55230;42.602;23.470;2023-02-03T09:34:41;3.03;;;2.17;;
11052;SDS011;55230;42.602;23.470;2023-02-03T09:37:08;2.87;;;2.03;;
11052;SDS011;55230;42.602;23.470;2023-02-03T09:39:34;2.03;;;1.93;;
11052;SDS011;55230;42.602;23.470;2023-02-03T09:45:06;2.20;;;2.00;;
11052;SDS011;55230;42.602;23.470;2023-02-03T09:47:40;3.10;;;2.10;;
11052;SDS011;55230;42.602;23.470;2023-02-03T09:50:10;2.20;;;2.00;;
11052;SDS011;55230;42.602;23.470;2023-02-03T09:52:39;2.83;;;2.63;;
11052;SDS011;55230;42.602;23.470;2023-02-03T09:55:10;2.47;;;2.27;;
11052;SDS011;55230;42.602;23.470;2023-02-03T09:57:52;2.67;;;2.47;;
11052;SDS011;55230;42.602;23.470;2023-02-03T10:00:25;3.20;;;2.23;;
11052;SDS011;55230;42.602;23.470;2023-02-03T10:02:56;2.50;;;2.30;;
11052;SDS011;55230;42.602;23.470;2023-02-03T10:05:43;2.00;;;1.80;;
11052;SDS011;55230;42.602;23.470;2023-02-03T10:08:21;2.80;;;2.50;;
11052;SDS011;55230;42.602;23.470;2023-02-03T10:11:03;3.10;;;2.10;;
11052;SDS011;55230;42.602;23.470;2023-02-03T10:13:49;2.80;;;1.47;;
11052;SDS011;55230;42.602;23.470;2023-02-03T10:16:25;2.07;;;1.70;;
11052;SDS011;55230;42.602;23.470;2023-02-03T10:19:08;2.27;;;1.80;;
11052;SDS011;55230;42.602;23.470;2023-02-03T10:21:39;2.43;;;1.90;;
11052;SDS011;55230;42.602;23.470;2023-02-03T10:24:08;1.43;;;1.30;;
11052;SDS011;55230;42.602;23.470;2023-02-03T10:26:40;1.87;;;1.77;;
11052;SDS011;55230;42.602;23.470;2023-02-03T10:29:12;1.90;;;1.70;;
11052;SDS011;55230;42.602;23.470;2023-02-03T10:31:44;2.83;;;1.83;;
11052;SDS011;55230;42.602;23.470;2023-02-03T10:34:12;1.80;;;1.70;;
11052;SDS011;55230;42.602;23.470;2023-02-03T10:36:45;2.00;;;1.87;;
11052;SDS011;55230;42.602;23.470;2023-02-03T10:39:20;3.20;;;1.97;;
11052;SDS011;55230;42.602;23.470;2023-02-03T10:41:55;1.97;;;1.87;;
11052;SDS011;55230;42.602;23.470;2023-02-03T10:44:26;2.93;;;2.10;;
11052;SDS011;55230;42.602;23.470;2023-02-03T10:46:58;2.40;;;2.20;;
11052;SDS011;55230;42.602;23.470;2023-02-03T10:49:25;2.40;;;2.20;;
11052;SDS011;55230;42.602;23.470;2023-02-03T10:51:56;2.40;;;2.20;;
11052;SDS011;55230;42.602;23.470;2023-02-03T10:54:29;3.13;;;2.83;;
11052;SDS011;55230;42.602;23.470;2023-02-03T10:57:01;4.50;;;3.20;;
11052;SDS011;55230;42.602;23.470;2023-02-03T10:59:32;3.50;;;2.40;;
11052;SDS011;55230;42.602;23.470;2023-02-03T11:02:06;2.97;;;2.10;;
11052;SDS011;55230;42.602;23.470;2023-02-03T11:04:34;3.20;;;2.90;;
11052;SDS011;55230;42.602;23.470;2023-02-03T11:07:01;2.30;;;2.00;;
11052;SDS011;55230;42.602;23.470;2023-02-03T11:09:32;2.47;;;2.00;;
11052;SDS011;55230;42.602;23.470;2023-02-03T11:12:05;2.40;;;1.83;;
11052;SDS011;55230;42.602;23.470;2023-02-03T11:14:38;3.53;;;2.57;;
11052;SDS011;55230;42.602;23.470;2023-02-03T11:17:07;3.83;;;2.63;;
11052;SDS011;55230;42.602;23.470;2023-02-03T11:19:41;4.37;;;3.13;;
11052;SDS011;55230;42.602;23.470;2023-02-03T11:22:10;2.63;;;2.43;;
11052;SDS011;55230;42.602;23.470;2023-02-03T11:24:38;4.03;;;2.70;;
11052;SDS011;55230;42.602;23.470;2023-02-03T11:27:08;2.77;;;1.97;;
11052;SDS011;55230;42.602;23.470;2023-02-03T11:29:41;4.47;;;2.83;;
11052;SDS011;55230;42.602;23.470;2023-02-03T11:32:14;2.40;;;2.20;;
11052;SDS011;55230;42.602;23.470;2023-02-03T11:34:46;2.87;;;2.30;;
11052;SDS011;55230;42.602;23.470;2023-02-03T11:37:27;3.60;;;3.30;;
11052;SDS011;55230;42.602;23.470;2023-02-03T11:40:11;3.90;;;2.67;;
11052;SDS011;55230;42.602;23.470;2023-02-03T11:42:58;5.77;;;3.53;;
11052;SDS011;55230;42.602;23.470;2023-02-03T11:45:28;3.00;;;2.20;;
11052;SDS011;55230;42.602;23.470;2023-02-03T11:48:00;5.23;;;3.10;;
11052;SDS011;55230;42.602;23.470;2023-02-03T11:50:33;5.47;;;3.43;;
11052;SDS011;55230;42.602;23.470;2023-02-03T11:53:13;3.17;;;2.70;;
11052;SDS011;55230;42.602;23.470;2023-02-03T11:56:03;2.07;;;1.87;;
11052;SDS011;55230;42.602;23.470;2023-02-03T12:01:53;3.07;;;2.30;;
11052;SDS011;55230;42.602;23.470;2023-02-03T12:07:46;3.37;;;2.00;;
11052;SDS011;55230;42.602;23.470;2023-02-03T12:10:25;2.80;;;2.50;;
11052;SDS011;55230;42.602;23.470;2023-02-03T12:13:04;3.33;;;1.80;;
11052;SDS011;55230;42.602;23.470;2023-02-03T12:15:52;2.60;;;2.00;;
11052;SDS011;55230;42.602;23.470;2023-02-03T12:18:35;1.80;;;1.70;;
11052;SDS011;55230;42.602;23.470;2023-02-03T12:21:21;1.93;;;1.83;;
11052;SDS011;55230;42.602;23.470;2023-02-03T12:24:09;5.83;;;4.13;;
11052;SDS011;55230;42.602;23.470;2023-02-03T12:26:54;1.90;;;1.80;;
11052;SDS011;55230;42.602;23.470;2023-02-03T12:29:31;1.80;;;1.60;;
11052;SDS011;55230;42.602;23.470;2023-02-03T12:32:04;1.93;;;1.83;;
11052;SDS011;55230;42.602;23.470;2023-02-03T12:34:38;1.90;;;1.80;;
11052;SDS011;55230;42.602;23.470;2023-02-03T12:37:13;1.60;;;1.50;;
11052;SDS011;55230;42.602;23.470;2023-02-03T12:39:44;1.83;;;1.70;;
11052;SDS011;55230;42.602;23.470;2023-02-03T12:42:17;2.27;;;2.07;;
11052;SDS011;55230;42.602;23.470;2023-02-03T12:44:48;1.80;;;1.70;;
11052;SDS011;55230;42.602;23.470;2023-02-03T12:47:22;4.17;;;2.17;;
11052;SDS011;55230;42.602;23.470;2023-02-03T12:49:55;2.00;;;1.83;;
11052;SDS011;55230;42.602;23.470;2023-02-03T12:52:25;3.23;;;1.60;;
11052;SDS011;55230;42.602;23.470;2023-02-03T12:55:00;2.23;;;1.73;;
11052;SDS011;55230;42.602;23.470;2023-02-03T12:57:35;2.10;;;1.90;;
11052;SDS011;55230;42.602;23.470;2023-02-03T13:00:10;1.80;;;1.70;;
11052;SDS011;55230;42.602;23.470;2023-02-03T13:02:55;4.43;;;3.93;;
11052;SDS011;55230;42.602;23.470;2023-02-03T13:05:35;1.90;;;1.80;;
11052;SDS011;55230;42.602;23.470;2023-02-03T13:08:08;2.83;;;1.90;;
11052;SDS011;55230;42.602;23.470;2023-02-03T13:10:42;2.10;;;1.90;;
11052;SDS011;55230;42.602;23.470;2023-02-03T13:13:14;3.27;;;2.20;;
11052;SDS011;55230;42.602;23.470;2023-02-03T13:15:46;2.50;;;2.30;;
11052;SDS011;55230;42.602;23.470;2023-02-03T13:18:19;2.10;;;1.90;;
11052;SDS011;55230;42.602;23.470;2023-02-03T13:20:53;3.30;;;2.60;;
11052;SDS011;55230;42.602;23.470;2023-02-03T13:23:20;2.63;;;2.43;;
11052;SDS011;55230;42.602;23.470;2023-02-03T13:25:51;2.13;;;2.00;;
11052;SDS011;55230;42.602;23.470;2023-02-03T13:28:37;2.77;;;2.50;;
11052;SDS011;55230;42.602;23.470;2023-02-03T13:31:21;4.33;;;3.67;;
11052;SDS011;55230;42.602;23.470;2023-02-03T13:34:12;3.17;;;2.70;;
11052;SDS011;55230;42.602;23.470;2023-02-03T13:39:59;1.83;;;1.73;;
11052;SDS011;55230;42.602;23.470;2023-02-03T13:42:38;3.60;;;3.07;;
11052;SDS011;55230;42.602;23.470;2023-02-03T13:45:11;3.93;;;2.63;;
11052;SDS011;55230;42.602;23.470;2023-02-03T13:47:48;2.97;;;2.67;;
11052;SDS011;55230;42.602;23.470;2023-02-03T13:50:20;3.53;;;2.50;;
11052;SDS011;55230;42.602;23.470;2023-02-03T13:52:54;2.30;;;2.10;;
11052;SDS011;55230;42.602;23.470;2023-02-03T13:55:25;2.73;;;2.40;;
11052;SDS011;55230;42.602;23.470;2023-02-03T13:58:00;2.70;;;2.50;;
11052;SDS011;55230;42.602;23.470;2023-02-03T14:03:39;3.50;;;2.57;;
11052;SDS011;55230;42.602;23.470;2023-02-03T14:09:37;5.53;;;3.73;;
11052;SDS011;55230;42.602;23.470;2023-02-03T14:12:18;3.87;;;3.30;;
11052;SDS011;55230;42.602;23.470;2023-02-03T14:14:55;4.53;;;3.67;;
11052;SDS011;55230;42.602;23.470;2023-02-03T14:23:51;2.60;;;2.37;;
11052;SDS011;55230;42.602;23.470;2023-02-03T14:26:29;3.73;;;3.40;;
11052;SDS011;55230;42.602;23.470;2023-02-03T14:29:00;3.70;;;3.40;;
11052;SDS011;55230;42.602;23.470;2023-02-03T14:31:28;4.80;;;3.60;;
11052;SDS011;55230;42.602;23.470;2023-02-03T14:34:06;3.73;;;2.83;;
11052;SDS011;55230;42.602;23.470;2023-02-03T14:36:43;5.53;;;3.03;;
11052;SDS011;55230;42.602;23.470;2023-02-03T14:42:22;4.73;;;3.83;;
11052;SDS011;55230;42.602;23.470;2023-02-03T14:45:01;4.10;;;3.10;;
11052;SDS011;55230;42.602;23.470;2023-02-03T14:47:41;4.23;;;3.37;;
11052;SDS011;55230;42.602;23.470;2023-02-03T14:50:30;4.63;;;3.13;;
11052;SDS011;55230;42.602;23.470;2023-02-03T14:53:06;3.97;;;3.33;;
11052;SDS011;55230;42.602;23.470;2023-02-03T14:55:48;3.90;;;3.20;;
11052;SDS011;55230;42.602;23.470;2023-02-03T14:58:25;4.10;;;3.20;;
11052;SDS011;55230;42.602;23.470;2023-02-03T15:00:55;3.80;;;3.03;;
11052;SDS011;55230;42.602;23.470;2023-02-03T15:03:23;7.43;;;5.10;;
11052;SDS011;55230;42.602;23.470;2023-02-03T15:05:55;7.77;;;4.70;;
11052;SDS011;55230;42.602;23.470;2023-02-03T15:08:37;3.30;;;3.00;;
11052;SDS011;55230;42.602;23.470;2023-02-03T15:11:24;3.40;;;3.00;;
11052;SDS011;55230;42.602;23.470;2023-02-03T15:13:56;3.37;;;3.07;;
11052;SDS011;55230;42.602;23.470;2023-02-03T15:16:40;5.03;;;3.60;;
11052;SDS011;55230;42.602;23.470;2023-02-03T15:19:14;3.13;;;2.83;;
11052;SDS011;55230;42.602;23.470;2023-02-03T15:21:42;4.43;;;3.47;;
11052;SDS011;55230;42.602;23.470;2023-02-03T15:24:11;3.73;;;3.37;;
11052;SDS011;55230;42.602;23.470;2023-02-03T15:26:47;7.67;;;5.73;;
11052;SDS011;55230;42.602;23.470;2023-02-03T15:29:19;5.43;;;4.40;;
11052;SDS011;55230;42.602;23.470;2023-02-03T15:31:49;6.70;;;4.77;;
11052;SDS011;55230;42.602;23.470;2023-02-03T15:34:21;13.60;;;8.57;;
11052;SDS011;55230;42.602;23.470;2023-02-03T15:36:53;8.53;;;6.40;;
11052;SDS011;55230;42.602;23.470;2023-02-03T15:39:25;6.00;;;3.97;;
11052;SDS011;55230;42.602;23.470;2023-02-03T15:42:04;4.27;;;3.23;;